createdAt,value
2023-04-17T00:01:44.186Z,3.88
2023-04-17T00:04:11.578Z,3.97
2023-04-17T00:06:39.531Z,3.60
2023-04-17T00:09:06.211Z,3.05
2023-04-17T00:11:32.818Z,3.42
2023-04-17T00:13:59.503Z,3.75
2023-04-17T00:16:27.335Z,4.28
2023-04-17T00:18:56.810Z,3.53
2023-04-17T00:21:23.488Z,3.45
2023-04-17T00:23:50.121Z,3.63
2023-04-17T00:26:16.736Z,3.90
2023-04-17T00:28:43.453Z,3.63
2023-04-17T00:31:10.048Z,2.92
2023-04-17T00:33:36.703Z,4.47
2023-04-17T00:36:03.383Z,3.03
2023-04-17T00:38:29.975Z,3.53
2023-04-17T00:40:56.722Z,3.05
2023-04-17T00:43:23.342Z,5.10
2023-04-17T00:45:50.248Z,2.65
2023-04-17T00:48:18.784Z,3.00
2023-04-17T00:50:46.053Z,4.05
2023-04-17T00:53:14.071Z,2.88
2023-04-17T00:55:43.162Z,2.60
2023-04-17T00:58:11.092Z,3.38
2023-04-17T01:00:37.938Z,3.08
2023-04-17T01:03:05.346Z,2.72
2023-04-17T01:05:32.181Z,2.42
2023-04-17T01:07:58.882Z,2.88
2023-04-17T01:10:25.556Z,2.67
2023-04-17T01:13:05.536Z,3.78
2023-04-17T01:15:32.864Z,2.55
2023-04-17T01:17:59.750Z,2.50
2023-04-17T01:20:30.105Z,2.67
2023-04-17T01:22:58.389Z,2.13
2023-04-17T01:25:26.367Z,2.75
2023-04-17T01:27:53.064Z,2.72
2023-04-17T01:30:20.249Z,2.33
2023-04-17T01:32:46.962Z,1.98
2023-04-17T01:35:13.588Z,3.55
2023-04-17T01:37:40.237Z,1.80
2023-04-17T01:40:07.730Z,2.95
2023-04-17T01:42:34.975Z,2.05
2023-04-17T01:45:01.694Z,2.67
2023-04-17T01:47:28.457Z,3.13
2023-04-17T01:49:55.079Z,2.95
2023-04-17T01:52:21.678Z,3.17
2023-04-17T01:54:48.280Z,4.13
2023-04-17T01:57:14.901Z,2.85
2023-04-17T01:59:41.513Z,2.35
2023-04-17T02:02:08.296Z,2.90
2023-04-17T02:04:35.071Z,2.58
2023-04-17T02:07:01.859Z,2.58
2023-04-17T02:09:28.496Z,2.20
2023-04-17T02:11:55.133Z,3.08
2023-04-17T02:14:21.723Z,2.83
2023-04-17T02:16:48.422Z,3.20
2023-04-17T02:19:15.016Z,2.53
2023-04-17T02:21:42.229Z,2.50
2023-04-17T02:24:08.841Z,3.05
2023-04-17T02:26:37.060Z,2.13
2023-04-17T02:29:03.666Z,2.65
2023-04-17T02:31:31.040Z,2.72
2023-04-17T02:33:57.774Z,3.63
2023-04-17T02:36:24.411Z,2.85
2023-04-17T02:38:50.982Z,2.67
2023-04-17T02:41:17.618Z,2.50
2023-04-17T02:43:44.272Z,3.47
2023-04-17T02:46:11.426Z,3.10
2023-04-17T02:48:38.085Z,2.88
2023-04-17T02:51:04.831Z,2.42
2023-04-17T02:53:31.488Z,2.33
2023-04-17T02:55:58.264Z,2.42
2023-04-17T02:58:24.899Z,2.38
2023-04-17T03:00:51.548Z,3.35
2023-04-17T03:03:18.501Z,3.55
2023-04-17T03:05:45.285Z,3.15
2023-04-17T03:08:11.895Z,4.40
2023-04-17T03:10:38.518Z,4.55
2023-04-17T03:13:05.160Z,3.95
2023-04-17T03:15:31.806Z,3.38
2023-04-17T03:17:58.577Z,3.38
2023-04-17T03:20:25.226Z,3.35
2023-04-17T03:22:51.824Z,5.30
2023-04-17T03:25:18.497Z,3.80
2023-04-17T03:27:45.121Z,3.10
2023-04-17T03:30:12.054Z,4.68
2023-04-17T03:32:38.683Z,3.83
2023-04-17T03:35:05.611Z,3.40
2023-04-17T03:37:32.347Z,3.88
2023-04-17T03:39:59.000Z,3.10
2023-04-17T03:42:27.172Z,4.28
2023-04-17T03:44:53.826Z,3.20
2023-04-17T03:47:20.447Z,3.90
2023-04-17T03:49:47.067Z,3.17
2023-04-17T03:52:13.666Z,3.80
2023-04-17T03:54:40.294Z,3.55
2023-04-17T03:57:06.956Z,3.20
2023-04-17T03:59:33.690Z,3.50
2023-04-17T04:02:00.756Z,3.38
2023-04-17T04:04:27.734Z,3.47
2023-04-17T04:06:57.641Z,2.40
2023-04-17T04:09:27.532Z,3.35
2023-04-17T04:11:54.337Z,2.25
2023-04-17T04:14:21.051Z,3.17
2023-04-17T04:16:47.700Z,2.78
2023-04-17T04:19:14.554Z,5.28
2023-04-17T04:21:42.370Z,2.05
2023-04-17T04:24:10.278Z,2.80
2023-04-17T04:26:38.024Z,2.47
2023-04-17T04:29:04.739Z,4.20
2023-04-17T04:31:31.891Z,3.53
2023-04-17T04:33:59.637Z,2.42
2023-04-17T04:36:30.261Z,2.83
2023-04-17T04:39:00.906Z,3.60
2023-04-17T04:41:29.906Z,3.67
2023-04-17T04:43:56.726Z,3.90
2023-04-17T04:46:23.341Z,4.05
2023-04-17T04:48:50.009Z,4.22
2023-04-17T04:51:18.857Z,4.68
2023-04-17T04:53:45.991Z,3.83
2023-04-17T04:56:12.658Z,4.43
2023-04-17T04:58:39.258Z,6.57
2023-04-17T05:01:06.870Z,5.47
2023-04-17T05:03:34.107Z,4.68
2023-04-17T05:06:00.872Z,3.88
2023-04-17T05:08:27.522Z,4.07
2023-04-17T05:10:54.176Z,4.55
2023-04-17T05:13:21.015Z,2.83
2023-04-17T05:15:47.628Z,5.13
2023-04-17T05:18:14.243Z,3.53
2023-04-17T05:20:40.998Z,4.53
2023-04-17T05:23:07.649Z,3.95
2023-04-17T05:25:34.306Z,5.28
2023-04-17T05:28:01.007Z,4.20
2023-04-17T05:30:27.669Z,4.45
2023-04-17T05:32:54.560Z,4.80
2023-04-17T05:35:21.378Z,7.07
2023-04-17T05:37:48.036Z,9.02
2023-04-17T05:40:15.470Z,8.50
2023-04-17T05:42:42.500Z,6.90
2023-04-17T05:45:13.405Z,7.78
2023-04-17T05:47:40.446Z,6.38
2023-04-17T05:50:08.118Z,5.20
2023-04-17T05:52:36.936Z,4.55
2023-04-17T05:55:05.053Z,3.40
2023-04-17T05:57:31.636Z,3.53
2023-04-17T05:59:58.226Z,3.45
2023-04-17T06:02:25.138Z,2.90
2023-04-17T06:04:52.112Z,3.30
2023-04-17T06:07:20.085Z,4.03
2023-04-17T06:09:46.721Z,3.28
2023-04-17T06:12:16.133Z,3.83
2023-04-17T06:14:43.410Z,4.15
2023-04-17T06:17:10.444Z,4.20
2023-04-17T06:19:37.084Z,4.97
2023-04-17T06:22:03.708Z,5.95
2023-04-17T06:24:30.412Z,6.22
2023-04-17T06:26:57.028Z,5.82
2023-04-17T06:29:24.083Z,4.18
2023-04-17T06:31:50.874Z,4.80
2023-04-17T06:34:17.488Z,4.15
2023-04-17T06:36:44.085Z,4.38
2023-04-17T06:39:11.050Z,5.47
2023-04-17T06:41:37.778Z,5.07
2023-04-17T06:44:04.663Z,4.95
2023-04-17T06:46:31.449Z,5.25
2023-04-17T06:48:59.648Z,5.88
2023-04-17T06:51:27.774Z,5.38
2023-04-17T06:53:54.595Z,4.90
2023-04-17T06:56:21.562Z,5.25
2023-04-17T06:58:48.284Z,4.93
2023-04-17T07:01:15.354Z,4.40
2023-04-17T07:03:42.980Z,3.50
2023-04-17T07:06:10.421Z,5.18
2023-04-17T07:08:37.004Z,4.28
2023-04-17T07:11:03.635Z,4.20
2023-04-17T07:13:33.199Z,4.50
2023-04-17T07:16:01.306Z,4.63
2023-04-17T07:18:29.666Z,4.88
2023-04-17T07:20:56.843Z,3.58
2023-04-17T07:23:23.793Z,4.22
2023-04-17T07:25:50.657Z,4.45
2023-04-17T07:28:17.890Z,4.60
2023-04-17T07:30:44.606Z,3.35
2023-04-17T07:33:11.471Z,3.65
2023-04-17T07:35:38.176Z,2.70
2023-04-17T07:38:04.915Z,2.83
2023-04-17T07:40:32.089Z,4.28
2023-04-17T07:42:58.772Z,3.78
2023-04-17T07:45:28.562Z,3.67
2023-04-17T07:47:55.529Z,3.35
2023-04-17T07:50:22.344Z,4.28
2023-04-17T07:52:48.960Z,4.43
2023-04-17T07:55:16.715Z,4.05
2023-04-17T07:57:43.577Z,3.78
2023-04-17T08:00:13.268Z,3.55
2023-04-17T08:02:40.623Z,4.07
2023-04-17T08:05:08.277Z,4.63
2023-04-17T08:07:36.100Z,3.70
2023-04-17T08:10:03.858Z,3.50
2023-04-17T08:12:30.522Z,4.28
2023-04-17T08:14:57.136Z,4.45
2023-04-17T08:17:26.131Z,4.60
2023-04-17T08:19:53.998Z,4.15
2023-04-17T08:22:24.171Z,5.38
2023-04-17T08:24:54.860Z,6.00
2023-04-17T08:27:21.474Z,3.95
2023-04-17T08:29:48.087Z,5.00
2023-04-17T08:32:15.600Z,4.72
2023-04-17T08:34:44.318Z,4.88
2023-04-17T08:37:10.985Z,4.05
2023-04-17T08:39:37.772Z,3.45
2023-04-17T08:42:13.280Z,2.95
2023-04-17T08:44:44.423Z,3.55
2023-04-17T08:47:13.234Z,4.18
2023-04-17T08:49:43.660Z,3.15
2023-04-17T08:52:11.461Z,3.42
2023-04-17T08:54:39.074Z,2.88
2023-04-17T08:57:06.293Z,2.90
2023-04-17T08:59:33.439Z,2.88
2023-04-17T09:02:08.119Z,4.03
2023-04-17T09:04:45.592Z,3.50
2023-04-17T09:07:13.907Z,3.58
2023-04-17T09:09:46.754Z,3.80
2023-04-17T09:12:14.118Z,3.20
2023-04-17T09:14:41.197Z,3.80
2023-04-17T09:17:07.931Z,2.70
2023-04-17T09:19:35.254Z,3.55
2023-04-17T09:22:22.844Z,3.45
2023-04-17T09:24:49.546Z,4.53
2023-04-17T09:27:27.062Z,3.33
2023-04-17T09:29:58.882Z,4.10
2023-04-17T09:32:26.585Z,3.08
2023-04-17T09:34:54.259Z,3.47
2023-04-17T09:37:21.201Z,2.78
2023-04-17T09:40:01.901Z,2.92
2023-04-17T09:42:29.051Z,2.33
2023-04-17T09:44:55.845Z,3.00
2023-04-17T09:47:22.894Z,3.42
2023-04-17T09:49:52.959Z,3.80
2023-04-17T09:52:21.482Z,5.10
2023-04-17T09:54:51.241Z,3.58
2023-04-17T09:57:18.759Z,1.80
2023-04-17T09:59:49.938Z,2.38
2023-04-17T10:02:18.691Z,3.70
2023-04-17T10:04:47.047Z,2.15
2023-04-17T10:07:14.528Z,4.43
2023-04-17T10:09:42.120Z,1.70
2023-04-17T10:12:20.424Z,2.83
2023-04-17T10:14:51.642Z,2.67
2023-04-17T10:17:26.209Z,3.22
2023-04-17T10:19:52.941Z,3.60
2023-04-17T10:22:19.520Z,1.83
2023-04-17T10:25:12.635Z,1.90
2023-04-17T10:27:40.287Z,3.50
2023-04-17T10:30:07.398Z,2.33
2023-04-17T10:32:34.408Z,2.38
2023-04-17T10:35:17.528Z,1.52
2023-04-17T10:37:46.998Z,1.52
2023-04-17T10:40:21.040Z,1.35
2023-04-17T10:43:08.087Z,1.27
2023-04-17T10:45:57.239Z,2.80
2023-04-17T10:48:52.996Z,2.53
2023-04-17T10:51:27.111Z,2.25
2023-04-17T10:53:56.857Z,2.50
2023-04-17T10:56:42.721Z,2.22
2023-04-17T10:59:12.152Z,2.53
2023-04-17T11:01:58.199Z,2.08
2023-04-17T11:04:31.781Z,1.80
2023-04-17T11:06:58.786Z,1.38
2023-04-17T11:09:28.076Z,2.10
2023-04-17T11:11:58.092Z,2.22
2023-04-17T11:14:24.747Z,2.72
2023-04-17T11:16:52.101Z,2.28
2023-04-17T11:19:23.015Z,2.38
2023-04-17T11:21:52.111Z,2.47
2023-04-17T11:24:32.058Z,3.10
2023-04-17T11:27:00.716Z,2.30
2023-04-17T11:29:28.015Z,2.90
2023-04-17T11:31:56.899Z,2.80
2023-04-17T11:34:25.974Z,2.83
2023-04-17T11:36:57.522Z,2.88
2023-04-17T11:39:29.311Z,3.20
2023-04-17T11:41:57.271Z,5.13
2023-04-17T11:44:24.513Z,2.40
2023-04-17T11:46:51.937Z,1.60
2023-04-17T11:49:29.703Z,2.15
2023-04-17T11:51:59.031Z,2.22
2023-04-17T11:54:27.142Z,2.88
2023-04-17T11:56:58.986Z,2.10
2023-04-17T11:59:39.441Z,1.73
2023-04-17T12:02:07.575Z,2.15
2023-04-17T12:04:36.397Z,2.55
2023-04-17T12:07:05.387Z,2.45
2023-04-17T12:09:33.722Z,2.28
2023-04-17T12:12:09.205Z,2.30
2023-04-17T12:14:36.055Z,2.63
2023-04-17T12:17:02.721Z,2.83
2023-04-17T12:19:31.735Z,2.47
2023-04-17T12:21:59.541Z,2.35
2023-04-17T12:24:26.215Z,2.47
2023-04-17T12:26:53.268Z,1.98
2023-04-17T12:29:26.447Z,2.35
2023-04-17T12:31:59.674Z,1.80
2023-04-17T12:34:27.783Z,2.58
2023-04-17T12:36:54.763Z,2.83
2023-04-17T12:39:21.450Z,2.08
2023-04-17T12:41:48.117Z,2.72
2023-04-17T12:44:14.978Z,2.88
2023-04-17T12:46:41.783Z,4.80
2023-04-17T12:49:08.953Z,3.25
2023-04-17T12:51:38.089Z,3.50
2023-04-17T12:54:05.047Z,3.30
2023-04-17T12:56:32.321Z,4.45
2023-04-17T12:59:01.313Z,3.40
2023-04-17T13:01:29.699Z,3.50
2023-04-17T13:03:56.566Z,3.78
2023-04-17T13:06:23.395Z,3.15
2023-04-17T13:08:50.004Z,3.40
2023-04-17T13:11:16.615Z,3.90
2023-04-17T13:13:43.197Z,4.15
2023-04-17T13:16:10.655Z,3.05
2023-04-17T13:18:37.644Z,3.53
2023-04-17T13:21:04.384Z,2.92
2023-04-17T13:23:31.354Z,3.80
2023-04-17T13:25:58.043Z,4.00
2023-04-17T13:28:24.676Z,3.85
2023-04-17T13:30:51.428Z,3.33
2023-04-17T13:33:18.066Z,4.30
2023-04-17T13:35:44.693Z,3.42
2023-04-17T13:38:11.288Z,4.25
2023-04-17T13:40:38.610Z,3.10
2023-04-17T13:43:06.728Z,5.15
2023-04-17T13:45:33.382Z,3.83
2023-04-17T13:48:00.465Z,4.40
2023-04-17T13:50:27.270Z,4.38
2023-04-17T13:52:53.953Z,3.38
2023-04-17T13:55:20.679Z,3.13
2023-04-17T13:57:47.357Z,3.53
2023-04-17T14:00:14.783Z,3.80
2023-04-17T14:02:41.704Z,3.42
2023-04-17T14:05:08.942Z,4.05
2023-04-17T14:07:35.669Z,4.07
2023-04-17T14:10:02.391Z,4.03
2023-04-17T14:12:29.062Z,3.70
2023-04-17T14:14:58.046Z,4.55
2023-04-17T14:17:25.052Z,4.20
2023-04-17T14:19:52.590Z,3.75
2023-04-17T14:22:20.087Z,4.60
2023-04-17T14:24:46.721Z,3.63
2023-04-17T14:27:13.356Z,3.97
2023-04-17T14:29:39.976Z,3.75
2023-04-17T14:32:06.623Z,3.72
2023-04-17T14:34:33.309Z,4.28
2023-04-17T14:37:00.179Z,5.93
2023-04-17T14:39:27.894Z,4.68
2023-04-17T14:41:57.472Z,3.85
2023-04-17T14:44:24.992Z,4.03
2023-04-17T14:46:51.704Z,6.18
2023-04-17T14:49:18.499Z,4.35
2023-04-17T14:51:45.109Z,4.47
2023-04-17T14:54:11.806Z,4.97
2023-04-17T14:56:39.261Z,3.92
2023-04-17T14:59:06.043Z,3.65
2023-04-17T15:01:32.674Z,5.13
2023-04-17T15:03:59.448Z,3.60
2023-04-17T15:06:26.333Z,4.53
2023-04-17T15:08:53.015Z,3.97
2023-04-17T15:11:19.704Z,4.20
2023-04-17T15:13:46.326Z,4.70
2023-04-17T15:16:12.930Z,3.38
2023-04-17T15:18:39.688Z,4.38
2023-04-17T15:21:06.793Z,3.53
2023-04-17T15:23:34.810Z,4.72
2023-04-17T15:26:01.648Z,4.57
2023-04-17T15:28:28.333Z,3.70
2023-04-17T15:30:55.862Z,4.13
2023-04-17T15:33:22.518Z,3.85
2023-04-17T15:35:55.289Z,4.07
2023-04-17T15:38:22.113Z,4.30
2023-04-17T15:40:48.775Z,4.47
2023-04-17T15:43:15.385Z,4.53
2023-04-17T15:45:42.085Z,3.83
2023-04-17T15:48:08.789Z,3.42
2023-04-17T15:50:35.756Z,4.95
2023-04-17T15:53:02.853Z,3.60
2023-04-17T15:55:29.529Z,4.10
2023-04-17T15:57:56.202Z,4.35
2023-04-17T16:00:22.885Z,3.95
2023-04-17T16:02:49.647Z,4.35
2023-04-17T16:05:17.369Z,4.22
2023-04-17T16:07:44.603Z,4.05
2023-04-17T16:10:15.356Z,4.45
2023-04-17T16:12:45.490Z,4.63
2023-04-17T16:15:14.796Z,3.83
2023-04-17T16:17:41.920Z,4.53
2023-04-17T16:20:09.908Z,4.68
2023-04-17T16:22:36.969Z,3.33
2023-04-17T16:25:04.537Z,5.28
2023-04-17T16:27:32.504Z,4.57
2023-04-17T16:29:59.446Z,4.43
2023-04-17T16:32:27.570Z,3.63
2023-04-17T16:34:54.665Z,4.20
2023-04-17T16:37:21.419Z,3.55
2023-04-17T16:39:48.457Z,4.35
2023-04-17T16:42:15.102Z,4.20
2023-04-17T16:44:41.714Z,3.30
2023-04-17T16:49:37.822Z,4.07
2023-04-17T16:52:04.656Z,4.93
2023-04-17T16:54:31.453Z,4.68
2023-04-17T16:56:58.061Z,5.30
2023-04-17T16:59:24.723Z,4.25
2023-04-17T17:01:52.703Z,4.28
2023-04-17T17:04:19.491Z,3.72
2023-04-17T17:06:46.273Z,3.47
2023-04-17T17:09:13.331Z,4.20
2023-04-17T17:11:40.341Z,4.80
2023-04-17T17:14:06.960Z,5.03
2023-04-17T17:16:33.623Z,4.07
2023-04-17T17:19:00.350Z,4.38
2023-04-17T17:21:28.120Z,3.67
2023-04-17T17:23:54.792Z,4.22
2023-04-17T17:26:21.439Z,5.70
2023-04-17T17:28:51.231Z,4.38
2023-04-17T17:31:18.358Z,5.20
2023-04-17T17:33:50.038Z,5.03
2023-04-17T17:36:17.306Z,3.78
2023-04-17T17:38:44.707Z,6.20
2023-04-17T17:41:11.452Z,4.75
2023-04-17T17:43:38.197Z,4.03
2023-04-17T17:46:04.996Z,4.38
2023-04-17T17:48:31.633Z,4.22
2023-04-17T17:50:58.270Z,4.00
2023-04-17T17:53:26.934Z,4.32
2023-04-17T17:55:55.263Z,5.05
2023-04-17T17:58:22.315Z,4.93
2023-04-17T18:00:50.078Z,4.90
2023-04-17T18:03:16.946Z,4.00
2023-04-17T18:05:45.175Z,4.50
2023-04-17T18:08:12.147Z,6.35
2023-04-17T18:10:38.975Z,4.97
2023-04-17T18:13:06.155Z,4.72
2023-04-17T18:15:32.808Z,4.85
2023-04-17T18:17:59.484Z,4.18
2023-04-17T18:20:26.213Z,4.65
2023-04-17T18:22:52.857Z,4.57
2023-04-17T18:25:19.615Z,4.20
2023-04-17T18:27:46.235Z,3.85
2023-04-17T18:30:13.573Z,4.75
2023-04-17T18:32:40.285Z,4.72
2023-04-17T18:35:07.363Z,8.30
2023-04-17T18:37:34.006Z,11.20
2023-04-17T18:40:00.638Z,9.25
2023-04-17T18:42:27.217Z,7.63
2023-04-17T18:44:53.918Z,6.55
2023-04-17T18:47:20.522Z,5.63
2023-04-17T18:49:47.192Z,7.25
2023-04-17T18:52:13.870Z,5.82
2023-04-17T18:54:40.756Z,6.05
2023-04-17T18:57:07.363Z,5.13
2023-04-17T18:59:34.051Z,6.63
2023-04-17T19:02:00.815Z,4.95
2023-04-17T19:04:27.777Z,5.25
2023-04-17T19:06:54.446Z,5.55
2023-04-17T19:09:21.224Z,5.63
2023-04-17T19:11:47.837Z,5.32
2023-04-17T19:14:14.577Z,4.43
2023-04-17T19:16:41.454Z,5.53
2023-04-17T19:19:11.095Z,4.47
2023-04-17T19:21:37.992Z,4.25
2023-04-17T19:24:04.888Z,14.07
2023-04-17T19:26:31.643Z,10.93
2023-04-17T19:28:59.025Z,8.38
2023-04-17T19:31:25.818Z,6.45
2023-04-17T19:33:56.088Z,7.60
2023-04-17T19:36:23.083Z,7.00
2023-04-17T19:38:50.910Z,6.97
2023-04-17T19:41:19.203Z,5.88
2023-04-17T19:43:47.078Z,5.13
2023-04-17T19:46:14.161Z,5.50
2023-04-17T19:48:43.645Z,6.45
2023-04-17T19:51:11.429Z,5.50
2023-04-17T19:53:39.848Z,4.85
2023-04-17T19:56:08.554Z,5.32
2023-04-17T19:58:36.663Z,6.13
2023-04-17T20:01:03.594Z,5.25
2023-04-17T20:03:31.853Z,5.78
2023-04-17T20:05:58.876Z,4.80
2023-04-17T20:08:26.057Z,5.85
2023-04-17T20:10:52.856Z,5.00
2023-04-17T20:13:19.531Z,5.07
2023-04-17T20:15:46.146Z,4.85
2023-04-17T20:18:12.962Z,5.40
2023-04-17T20:20:39.659Z,5.25
2023-04-17T20:23:06.583Z,4.13
2023-04-17T20:25:33.238Z,4.50
2023-04-17T20:28:02.587Z,5.18
2023-04-17T20:30:29.445Z,4.55
2023-04-17T20:32:56.267Z,5.13
2023-04-17T20:35:24.654Z,5.30
2023-04-17T20:37:51.935Z,4.35
2023-04-17T20:40:19.473Z,5.72
2023-04-17T20:42:46.820Z,6.18
2023-04-17T20:45:13.986Z,5.10
2023-04-17T20:47:55.950Z,4.72
2023-04-17T20:50:23.907Z,5.40
2023-04-17T20:52:50.631Z,4.75
2023-04-17T20:55:19.817Z,6.32
2023-04-17T20:57:46.819Z,5.97
2023-04-17T21:00:14.087Z,5.10
2023-04-17T21:02:40.911Z,6.15
2023-04-17T21:05:08.497Z,6.93
2023-04-17T21:07:35.652Z,5.95
2023-04-17T21:10:02.616Z,5.75
2023-04-17T21:12:29.606Z,6.00
2023-04-17T21:14:56.192Z,5.60
2023-04-17T21:17:22.885Z,5.45
2023-04-17T21:19:49.701Z,5.10
2023-04-17T21:22:16.460Z,5.90
2023-04-17T21:24:43.190Z,5.43
2023-04-17T21:27:10.431Z,4.47
2023-04-17T21:29:37.456Z,7.10
2023-04-17T21:32:04.252Z,7.43
2023-04-17T21:34:30.943Z,6.15
2023-04-17T21:37:01.327Z,7.50
2023-04-17T21:39:27.994Z,6.68
2023-04-17T21:41:54.657Z,6.30
2023-04-17T21:44:21.285Z,7.63
2023-04-17T21:46:47.944Z,7.15
2023-04-17T21:49:14.532Z,6.00
2023-04-17T21:51:41.131Z,6.43
2023-04-17T21:54:09.492Z,5.38
2023-04-17T21:56:36.621Z,6.28
2023-04-17T21:59:03.771Z,6.15
2023-04-17T22:01:30.432Z,5.97
2023-04-17T22:03:57.140Z,5.85
2023-04-17T22:06:24.202Z,5.70
2023-04-17T22:08:50.842Z,4.68
2023-04-17T22:11:17.448Z,5.20
2023-04-17T22:13:45.086Z,5.68
2023-04-17T22:16:11.830Z,6.35
2023-04-17T22:18:38.471Z,6.88
2023-04-17T22:21:05.540Z,5.47
2023-04-17T22:23:32.136Z,7.05
2023-04-17T22:25:58.731Z,5.82
2023-04-17T22:28:28.255Z,6.97
2023-04-17T22:30:54.889Z,6.25
2023-04-17T22:33:21.543Z,8.02
2023-04-17T22:35:48.424Z,6.13
2023-04-17T22:38:15.581Z,5.85
2023-04-17T22:40:42.702Z,5.85
2023-04-17T22:43:09.346Z,6.00
2023-04-17T22:45:36.029Z,6.40
2023-04-17T22:48:02.671Z,5.57
2023-04-17T22:50:30.597Z,6.53
2023-04-17T22:52:57.249Z,5.70
2023-04-17T22:55:24.050Z,6.20
2023-04-17T22:57:50.651Z,5.10
2023-04-17T23:00:20.011Z,5.53
2023-04-17T23:02:47.482Z,5.88
2023-04-17T23:05:14.469Z,5.82
2023-04-17T23:07:41.333Z,5.68
2023-04-17T23:10:08.782Z,6.45
2023-04-17T23:12:35.588Z,6.15
2023-04-17T23:15:02.302Z,5.88
2023-04-17T23:17:29.076Z,5.88
2023-04-17T23:19:55.837Z,5.22
2023-04-17T23:22:22.674Z,4.95
2023-04-17T23:24:49.348Z,6.40
2023-04-17T23:27:16.011Z,5.40
2023-04-17T23:29:42.604Z,5.20
2023-04-17T23:32:09.383Z,5.82
2023-04-17T23:34:36.052Z,5.72
2023-04-17T23:37:02.867Z,5.28
2023-04-17T23:39:29.659Z,5.60
2023-04-17T23:41:57.645Z,5.70
2023-04-17T23:44:24.297Z,4.78
2023-04-17T23:46:51.405Z,5.13
2023-04-17T23:49:18.193Z,5.82
2023-04-17T23:51:45.020Z,5.22
2023-04-17T23:54:12.378Z,6.63
2023-04-17T23:56:39.130Z,7.43
2023-04-17T23:59:05.778Z,5.38
